createdAt,value
2018-08-06T00:00:02.677Z,70.59
2018-08-06T00:01:02.663Z,71.13
2018-08-06T00:02:02.667Z,71.20
2018-08-06T00:03:02.694Z,71.20
2018-08-06T00:04:02.668Z,71.44
2018-08-06T00:05:02.669Z,71.23
2018-08-06T00:06:02.670Z,71.80
2018-08-06T00:07:02.593Z,71.94
2018-08-06T00:08:02.594Z,72.14
2018-08-06T00:09:02.593Z,72.04
2018-08-06T00:10:02.559Z,72.44
2018-08-06T00:11:02.553Z,73.05
2018-08-06T00:12:02.548Z,73.15
2018-08-06T00:13:02.548Z,73.19
2018-08-06T00:14:02.595Z,73.08
2018-08-06T00:15:02.554Z,73.05
2018-08-06T00:16:02.556Z,72.99
2018-08-06T00:17:02.486Z,73.46
2018-08-06T00:18:02.473Z,73.35
2018-08-06T00:19:02.480Z,73.69
2018-08-06T00:20:02.452Z,74.19
2018-08-06T00:21:02.442Z,73.79
2018-08-06T00:22:02.435Z,73.90
2018-08-06T00:23:02.436Z,74.10
2018-08-06T00:24:02.473Z,73.90
2018-08-06T00:25:02.435Z,75.01
2018-08-06T00:26:02.439Z,74.19
2018-08-06T00:27:02.380Z,74.50
2018-08-06T00:28:02.363Z,74.90
2018-08-06T00:29:02.438Z,74.90
2018-08-06T00:30:02.348Z,74.80
2018-08-06T00:31:02.345Z,75.01
2018-08-06T00:32:02.319Z,74.94
2018-08-06T00:33:02.323Z,75.24
2018-08-06T00:34:02.322Z,74.94
2018-08-06T00:35:02.356Z,75.14
2018-08-06T00:36:02.326Z,75.24
2018-08-06T00:37:02.322Z,75.14
2018-08-06T00:38:02.261Z,74.84
2018-08-06T00:39:02.248Z,74.94
2018-08-06T00:40:02.229Z,74.84
2018-08-06T00:41:02.236Z,74.43
2018-08-06T00:42:02.213Z,75.58
2018-08-06T00:43:02.210Z,74.94
2018-08-06T00:44:02.210Z,75.28
2018-08-06T00:45:02.240Z,75.18
2018-08-06T00:46:02.241Z,75.07
2018-08-06T00:47:02.213Z,75.18
2018-08-06T00:48:02.219Z,75.68
2018-08-06T00:49:02.138Z,75.68
2018-08-06T00:50:02.120Z,75.79
2018-08-06T00:51:02.114Z,76.90
2018-08-06T00:52:02.128Z,76.70
2018-08-06T00:53:02.090Z,76.09
2018-08-06T00:54:02.093Z,76.83
2018-08-06T00:55:02.093Z,76.39
2018-08-06T00:56:02.148Z,76.83
2018-08-06T00:57:02.095Z,76.70
2018-08-06T00:58:02.113Z,76.90
2018-08-06T00:59:02.028Z,76.59
2018-08-06T01:00:02.010Z,76.79
2018-08-06T01:01:02.109Z,76.39
2018-08-06T01:02:02.033Z,76.70
2018-08-06T01:03:01.979Z,77.03
2018-08-06T01:04:01.987Z,76.59
2018-08-06T01:05:01.985Z,77.24
2018-08-06T01:06:01.985Z,76.73
2018-08-06T01:07:02.011Z,77.14
2018-08-06T01:08:01.979Z,76.39
2018-08-06T01:09:01.917Z,76.43
2018-08-06T01:10:01.907Z,76.63
2018-08-06T01:11:01.899Z,77.03
2018-08-06T01:12:01.880Z,77.64
2018-08-06T01:13:01.897Z,77.24
2018-08-06T01:14:01.876Z,76.63
2018-08-06T01:15:01.867Z,77.14
2018-08-06T01:16:01.865Z,77.44
2018-08-06T01:17:01.864Z,76.83
2018-08-06T01:18:01.866Z,76.83
2018-08-06T01:19:01.866Z,76.73
2018-08-06T01:20:01.796Z,76.93
2018-08-06T01:21:01.876Z,77.24
2018-08-06T01:22:01.767Z,77.03
2018-08-06T01:23:01.763Z,77.58
2018-08-06T01:24:01.747Z,78.08
2018-08-06T01:25:01.753Z,78.89
2018-08-06T01:26:01.748Z,77.48
2018-08-06T01:27:01.786Z,77.48
2018-08-06T01:28:01.787Z,78.08
2018-08-06T01:29:01.753Z,78.28
2018-08-06T01:30:01.683Z,77.88
2018-08-06T01:31:01.693Z,78.28
2018-08-06T01:32:01.684Z,78.69
2018-08-06T01:33:01.681Z,79.10
2018-08-06T01:34:01.639Z,79.30
2018-08-06T01:35:01.696Z,79.00
2018-08-06T01:36:01.639Z,78.89
2018-08-06T01:37:01.634Z,79.20
2018-08-06T01:38:01.647Z,79.00
2018-08-06T01:39:01.636Z,79.20
2018-08-06T01:40:01.637Z,78.69
2018-08-06T01:41:01.638Z,78.28
2018-08-06T01:42:01.548Z,78.66
2018-08-06T01:43:01.552Z,77.44
2018-08-06T01:44:01.557Z,77.44
2018-08-06T01:45:01.521Z,76.93
2018-08-06T01:46:01.552Z,76.73
2018-08-06T01:47:01.527Z,77.03
2018-08-06T01:48:01.528Z,77.14
2018-08-06T01:49:01.523Z,77.34
2018-08-06T01:50:01.522Z,77.64
2018-08-06T01:51:01.533Z,77.54
2018-08-06T01:52:01.461Z,78.45
2018-08-06T01:53:01.432Z,78.49
2018-08-06T01:54:01.420Z,77.48
2018-08-06T01:55:01.411Z,77.17
2018-08-06T01:56:01.926Z,76.46
2018-08-06T01:57:01.427Z,76.53
2018-08-06T01:58:01.407Z,76.53
2018-08-06T01:59:01.421Z,76.43
2018-08-06T02:00:01.408Z,76.83
2018-08-06T02:01:01.408Z,76.93
2018-08-06T02:02:01.332Z,76.46
2018-08-06T02:03:01.321Z,76.36
2018-08-06T02:04:01.352Z,76.32
2018-08-06T02:05:01.303Z,76.67
2018-08-06T02:06:01.331Z,76.77
2018-08-06T02:07:01.295Z,76.36
2018-08-06T02:08:01.300Z,76.77
2018-08-06T02:09:01.299Z,76.87
2018-08-06T02:10:01.296Z,76.77
2018-08-06T02:11:01.293Z,76.97
2018-08-06T02:12:01.302Z,76.87
2018-08-06T02:13:01.215Z,76.87
2018-08-06T02:14:01.228Z,76.77
2018-08-06T02:15:01.197Z,76.67
2018-08-06T02:16:01.178Z,76.77
2018-08-06T02:17:01.205Z,76.87
2018-08-06T02:18:01.178Z,77.28
2018-08-06T02:19:01.184Z,77.31
2018-08-06T02:20:01.179Z,77.31
2018-08-06T02:21:01.214Z,77.41
2018-08-06T02:22:01.117Z,77.82
2018-08-06T02:23:01.182Z,77.51
2018-08-06T02:24:01.101Z,77.41
2018-08-06T02:25:01.081Z,77.41
2018-08-06T02:26:01.073Z,77.31
2018-08-06T02:27:01.087Z,76.90
2018-08-06T02:28:01.107Z,77.11
2018-08-06T02:29:01.068Z,77.65
2018-08-06T02:30:01.066Z,77.61
2018-08-06T02:31:01.064Z,77.65
2018-08-06T02:32:01.064Z,78.97
2018-08-06T02:33:00.998Z,77.86
2018-08-06T02:34:00.997Z,77.65
2018-08-06T02:35:00.972Z,77.75
2018-08-06T02:36:00.968Z,78.06
2018-08-06T02:37:00.952Z,78.77
2018-08-06T02:38:00.981Z,78.66
2018-08-06T02:39:01.020Z,78.56
2018-08-06T02:40:00.948Z,78.36
2018-08-06T02:41:00.952Z,78.66
2018-08-06T02:42:00.953Z,79.47
2018-08-06T02:43:00.883Z,79.38
2018-08-06T02:44:00.958Z,78.87
2018-08-06T02:45:00.871Z,78.87
2018-08-06T02:46:00.864Z,79.58
2018-08-06T02:47:00.845Z,79.07
2018-08-06T02:48:00.837Z,79.38
2018-08-06T02:49:00.833Z,79.27
2018-08-06T02:50:00.874Z,79.31
2018-08-06T02:51:00.847Z,79.51
2018-08-06T02:52:00.837Z,79.00
2018-08-06T02:53:00.836Z,79.41
2018-08-06T02:54:00.767Z,79.31
2018-08-06T02:55:00.752Z,80.22
2018-08-06T02:56:00.766Z,80.02
2018-08-06T02:57:00.729Z,80.73
2018-08-06T02:58:00.727Z,80.66
2018-08-06T02:59:00.719Z,79.96
2018-08-06T03:00:00.811Z,80.66
2018-08-06T03:01:00.720Z,81.27
2018-08-06T03:02:00.720Z,81.07
2018-08-06T03:03:00.742Z,80.87
2018-08-06T03:04:00.660Z,80.87
2018-08-06T03:05:00.722Z,80.77
2018-08-06T03:06:00.642Z,80.97
2018-08-06T03:07:00.627Z,80.06
2018-08-06T03:08:00.617Z,79.51
2018-08-06T03:09:00.611Z,79.11
2018-08-06T03:10:00.646Z,79.35
2018-08-06T03:11:00.648Z,79.65
2018-08-06T03:12:00.611Z,79.75
2018-08-06T03:13:00.609Z,79.45
2018-08-06T03:14:00.544Z,79.65
2018-08-06T03:15:00.530Z,79.35
2018-08-06T03:16:00.617Z,79.55
2018-08-06T03:17:00.551Z,79.55
2018-08-06T03:18:00.499Z,79.45
2018-08-06T03:19:00.492Z,79.45
2018-08-06T03:20:00.537Z,80.16
2018-08-06T03:21:00.493Z,80.57
2018-08-06T03:22:00.496Z,80.57
2018-08-06T03:23:00.503Z,80.36
2018-08-06T03:24:00.528Z,80.50
2018-08-06T03:25:00.442Z,80.40
2018-08-06T03:26:00.415Z,81.62
2018-08-06T03:27:00.409Z,81.62
2018-08-06T03:28:00.407Z,81.11
2018-08-06T03:29:00.380Z,81.21
2018-08-06T03:30:00.411Z,81.62
2018-08-06T03:31:00.377Z,81.62
2018-08-06T03:32:00.385Z,81.62
2018-08-06T03:33:00.380Z,81.21
2018-08-06T03:34:00.378Z,81.21
2018-08-06T03:35:00.378Z,81.21
2018-08-06T03:36:00.312Z,81.82
2018-08-06T03:37:00.292Z,81.21
2018-08-06T03:38:00.290Z,81.72
2018-08-06T03:39:00.270Z,81.92
2018-08-06T03:40:00.304Z,82.12
2018-08-06T03:41:00.266Z,81.92
2018-08-06T03:42:00.270Z,81.82
2018-08-06T03:43:00.265Z,82.33
2018-08-06T03:44:00.271Z,83.14
2018-08-06T03:45:00.263Z,83.45
2018-08-06T03:46:00.264Z,82.84
2018-08-06T03:47:00.188Z,82.84
2018-08-06T03:48:00.182Z,82.53
2018-08-06T03:49:00.165Z,82.73
2018-08-06T03:50:00.157Z,82.84
2018-08-06T03:51:00.186Z,82.64
2018-08-06T03:52:00.155Z,83.04
2018-08-06T03:53:00.148Z,83.24
2018-08-06T03:54:00.149Z,83.08
2018-08-06T03:55:00.152Z,83.38
2018-08-06T03:56:00.150Z,83.69
2018-08-06T03:57:00.152Z,84.20
2018-08-06T03:58:00.063Z,84.60
2018-08-06T03:59:00.057Z,83.65
2018-08-06T04:00:00.050Z,84.40
2018-08-06T04:01:00.066Z,83.69
2018-08-06T04:02:00.069Z,83.34
2018-08-06T04:03:00.038Z,83.38
2018-08-06T04:04:00.036Z,83.99
2018-08-06T04:05:00.041Z,84.09
2018-08-06T04:05:59.976Z,84.30
2018-08-06T04:06:59.963Z,84.09
2018-08-06T04:07:59.975Z,84.80
2018-08-06T04:08:59.936Z,84.70
2018-08-06T04:09:59.934Z,84.70
2018-08-06T04:10:59.964Z,84.80
2018-08-06T04:11:59.967Z,84.70
2018-08-06T04:12:59.962Z,84.70
2018-08-06T04:13:59.921Z,85.55
2018-08-06T04:14:59.934Z,85.41
2018-08-06T04:15:59.923Z,85.31
2018-08-06T04:16:59.870Z,85.21
2018-08-06T04:17:59.859Z,85.31
2018-08-06T04:18:59.826Z,85.31
2018-08-06T04:19:59.824Z,85.21
2018-08-06T04:20:59.804Z,85.41
2018-08-06T04:21:59.807Z,85.11
2018-08-06T04:22:59.871Z,85.52
2018-08-06T04:23:59.847Z,84.80
2018-08-06T04:24:59.806Z,84.60
2018-08-06T04:25:59.807Z,84.40
2018-08-06T04:26:59.807Z,84.16
2018-08-06T04:27:59.735Z,83.89
2018-08-06T04:28:59.717Z,84.70
2018-08-06T04:29:59.740Z,84.80
2018-08-06T04:30:59.713Z,84.46
2018-08-06T04:31:59.692Z,83.95
2018-08-06T04:32:59.812Z,83.34
2018-08-06T04:33:59.693Z,83.24
2018-08-06T04:34:59.725Z,83.45
2018-08-06T04:35:59.695Z,83.10
2018-08-06T04:36:59.699Z,83.00
2018-08-06T04:37:59.630Z,83.31
2018-08-06T04:38:59.612Z,82.39
2018-08-06T04:39:59.618Z,82.09
2018-08-06T04:40:59.594Z,81.58
2018-08-06T04:41:59.590Z,81.88
2018-08-06T04:42:59.587Z,81.34
2018-08-06T04:43:59.583Z,80.93
2018-08-06T04:44:59.610Z,80.22
2018-08-06T04:45:59.641Z,79.88
2018-08-06T04:46:59.624Z,79.58
2018-08-06T04:47:59.516Z,79.17
2018-08-06T04:48:59.508Z,79.38
2018-08-06T04:49:59.490Z,79.17
2018-08-06T04:50:59.517Z,78.73
2018-08-06T04:51:59.475Z,78.33
2018-08-06T04:52:59.462Z,78.02
2018-08-06T04:53:59.474Z,77.61
2018-08-06T04:54:59.462Z,78.08
2018-08-06T04:55:59.463Z,78.49
2018-08-06T04:56:59.497Z,79.10
2018-08-06T04:57:59.464Z,78.69
2018-08-06T04:58:59.469Z,79.20
2018-08-06T04:59:59.379Z,78.89
2018-08-06T05:00:59.372Z,77.48
2018-08-06T05:01:59.359Z,77.03
2018-08-06T05:02:59.380Z,76.53
2018-08-06T05:03:59.362Z,76.43
2018-08-06T05:04:59.351Z,75.79
2018-08-06T05:05:59.350Z,76.09
2018-08-06T05:06:59.397Z,75.65
2018-08-06T05:07:59.351Z,75.04
2018-08-06T05:08:59.354Z,75.14
2018-08-06T05:09:59.272Z,74.80
2018-08-06T05:10:59.284Z,74.10
2018-08-06T05:11:59.251Z,73.39
2018-08-06T05:12:59.236Z,73.90
2018-08-06T05:13:59.236Z,73.90
2018-08-06T05:14:59.237Z,72.28
2018-08-06T05:15:59.242Z,72.14
2018-08-06T05:16:59.265Z,73.15
2018-08-06T05:17:59.237Z,72.95
2018-08-06T05:18:59.254Z,72.04
2018-08-06T05:19:59.162Z,72.75
2018-08-06T05:20:59.152Z,72.64
2018-08-06T05:21:59.145Z,72.44
2018-08-06T05:22:59.172Z,71.23
2018-08-06T05:23:59.130Z,71.94
2018-08-06T05:24:59.118Z,70.83
2018-08-06T05:25:59.120Z,70.93
2018-08-06T05:26:59.122Z,70.69
2018-08-06T05:27:59.120Z,69.58
2018-08-06T05:28:59.125Z,69.24
2018-08-06T05:29:59.064Z,68.95
2018-08-06T05:30:59.048Z,68.51
2018-08-06T05:31:59.034Z,67.80
2018-08-06T05:32:59.029Z,67.97
2018-08-06T05:33:59.053Z,67.67
2018-08-06T05:34:59.005Z,67.07
2018-08-06T05:35:59.006Z,67.07
2018-08-06T05:36:59.006Z,66.53
2018-08-06T05:37:59.006Z,65.19
2018-08-06T05:38:59.055Z,65.32
2018-08-06T05:39:59.009Z,66.13
2018-08-06T05:40:58.935Z,65.72
2018-08-06T05:41:58.942Z,65.59
2018-08-06T05:42:58.907Z,65.29
2018-08-06T05:43:58.903Z,65.36
2018-08-06T05:44:58.921Z,65.02
2018-08-06T05:45:58.889Z,64.02
2018-08-06T05:46:58.891Z,64.12
2018-08-06T05:47:58.893Z,64.89
2018-08-06T05:48:58.893Z,64.39
2018-08-06T05:49:58.927Z,63.28
2018-08-06T05:50:58.822Z,64.06
2018-08-06T05:51:58.809Z,63.15
2018-08-06T05:52:58.813Z,62.35
2018-08-06T05:53:58.790Z,63.22
2018-08-06T05:54:58.782Z,63.02
2018-08-06T05:55:58.812Z,62.45
2018-08-06T05:56:58.778Z,61.71
2018-08-06T05:58:05.775Z,61.71
2018-08-06T05:58:58.782Z,61.74
2018-08-06T05:59:58.777Z,61.71
2018-08-06T06:00:58.711Z,61.71
2018-08-06T06:01:58.718Z,61.08
2018-08-06T06:02:58.722Z,60.65
2018-08-06T06:03:58.679Z,60.85
2018-08-06T06:04:58.668Z,61.25
2018-08-06T06:05:58.660Z,60.45
2018-08-06T06:06:58.699Z,60.75
2018-08-06T06:07:58.662Z,60.42
2018-08-06T06:08:58.664Z,60.42
2018-08-06T06:09:58.666Z,60.22
2018-08-06T06:10:58.666Z,59.82
2018-08-06T06:11:58.595Z,59.09
2018-08-06T06:12:58.590Z,58.69
2018-08-06T06:13:58.575Z,58.81
2018-08-06T06:14:58.567Z,58.59
2018-08-06T06:15:58.565Z,58.59
2018-08-06T06:16:58.580Z,58.89
2018-08-06T06:17:58.585Z,59.09
2018-08-06T06:18:58.550Z,58.79
2018-08-06T06:19:58.551Z,59.16
2018-08-06T06:20:58.563Z,58.76
2018-08-06T06:21:58.488Z,58.66
2018-08-06T06:22:58.553Z,58.66
2018-08-06T06:23:58.468Z,58.66
2018-08-06T06:24:58.456Z,59.26
2018-08-06T06:25:58.445Z,58.66
2018-08-06T06:26:58.436Z,57.63
2018-08-06T06:27:58.435Z,57.93
2018-08-06T06:28:58.466Z,58.00
2018-08-06T06:29:58.438Z,57.20
2018-08-06T06:30:58.437Z,57.20
2018-08-06T06:31:58.441Z,57.83
2018-08-06T06:32:58.368Z,57.10
2018-08-06T06:33:58.352Z,57.17
2018-08-06T06:34:58.440Z,57.28
2018-08-06T06:35:58.329Z,57.24
2018-08-06T06:36:58.325Z,56.85
2018-08-06T06:37:58.319Z,56.22
2018-08-06T06:38:58.323Z,56.42
2018-08-06T06:39:58.322Z,55.12
2018-08-06T06:40:58.357Z,54.92
2018-08-06T06:41:58.323Z,55.72
2018-08-06T06:42:58.265Z,55.02
2018-08-06T06:43:58.323Z,55.32
2018-08-06T06:44:58.234Z,55.22
2018-08-06T06:45:58.224Z,55.29
2018-08-06T06:46:58.213Z,54.82
2018-08-06T06:47:58.211Z,55.02
2018-08-06T06:48:58.256Z,54.79
2018-08-06T06:49:58.238Z,54.60
2018-08-06T06:50:58.206Z,53.97
2018-08-06T06:51:58.209Z,54.47
2018-08-06T06:52:58.249Z,53.37
2018-08-06T06:53:58.135Z,53.74
2018-08-06T06:54:58.125Z,53.94
2018-08-06T06:55:58.113Z,53.34
2018-08-06T06:56:58.101Z,52.62
2018-08-06T06:57:58.152Z,52.29
2018-08-06T06:58:58.126Z,52.29
2018-08-06T06:59:58.105Z,52.19
2018-08-06T07:00:58.097Z,53.02
2018-08-06T07:01:58.091Z,52.59
2018-08-06T07:02:58.100Z,52.00
2018-08-06T07:03:58.095Z,51.87
2018-08-06T07:04:58.018Z,52.47
2018-08-06T07:05:58.008Z,51.97
2018-08-06T07:06:57.995Z,51.97
2018-08-06T07:07:57.993Z,51.37
2018-08-06T07:08:58.027Z,51.84
2018-08-06T07:09:57.976Z,51.52
2018-08-06T07:10:57.980Z,50.43
2018-08-06T07:11:57.991Z,50.60
2018-08-06T07:12:57.983Z,50.00
2018-08-06T07:13:58.026Z,50.40
2018-08-06T07:14:58.012Z,49.98
2018-08-06T07:15:57.902Z,49.30
2018-08-06T07:16:57.907Z,48.91
2018-08-06T07:17:57.896Z,49.40
2018-08-06T07:18:57.870Z,49.88
2018-08-06T07:19:57.861Z,48.98
2018-08-06T07:20:57.863Z,49.38
2018-08-06T07:21:57.864Z,48.86
2018-08-06T07:22:57.895Z,47.56
2018-08-06T07:23:57.863Z,47.94
2018-08-06T07:24:57.894Z,47.25
2018-08-06T07:25:57.834Z,47.32
2018-08-06T07:26:57.782Z,47.62
2018-08-06T07:27:57.768Z,46.72
2018-08-06T07:28:57.761Z,47.30
2018-08-06T07:29:57.753Z,45.90
2018-08-06T07:30:57.777Z,46.68
2018-08-06T07:31:57.748Z,45.51
2018-08-06T07:32:57.750Z,46.01
2018-08-06T07:33:57.755Z,45.43
2018-08-06T07:34:57.749Z,47.40
2018-08-06T07:35:57.756Z,46.41
2018-08-06T07:36:57.676Z,47.17
2018-08-06T07:37:57.665Z,46.16
2018-08-06T07:38:57.652Z,45.37
2018-08-06T07:39:57.659Z,44.18
2018-08-06T07:40:57.667Z,44.95
2018-08-06T07:41:57.633Z,43.06
2018-08-06T07:42:57.674Z,44.48
2018-08-06T07:43:57.651Z,44.25
2018-08-06T07:44:57.703Z,44.15
2018-08-06T07:45:57.635Z,43.74
2018-08-06T07:46:57.593Z,43.44
2018-08-06T07:47:57.571Z,43.42
2018-08-06T07:48:57.561Z,43.71
2018-08-06T07:49:57.615Z,42.82
2018-08-06T07:50:57.557Z,43.22
2018-08-06T07:51:57.556Z,43.88
2018-08-06T07:52:57.522Z,43.68
2018-08-06T07:53:57.527Z,44.40
2018-08-06T07:54:57.519Z,44.29
2018-08-06T07:55:57.521Z,43.38
2018-08-06T07:56:57.520Z,43.76
2018-08-06T07:57:57.523Z,43.58
2018-08-06T07:58:57.533Z,43.68
2018-08-06T07:59:57.432Z,42.96
2018-08-06T08:00:57.421Z,42.86
2018-08-06T08:01:57.408Z,42.86
2018-08-06T08:02:57.405Z,43.44
2018-08-06T08:03:57.442Z,43.79
2018-08-06T08:04:57.417Z,41.61
2018-08-06T08:05:57.414Z,41.57
2018-08-06T08:06:57.409Z,40.98
2018-08-06T08:07:57.415Z,40.29
2018-08-06T08:08:57.353Z,40.56
2018-08-06T08:09:57.349Z,40.17
2018-08-06T08:10:57.318Z,40.34
2018-08-06T08:11:57.357Z,40.74
2018-08-06T08:12:57.351Z,40.47
2018-08-06T08:13:57.302Z,41.25
2018-08-06T08:14:57.344Z,40.26
2018-08-06T08:15:57.299Z,40.39
2018-08-06T08:16:57.295Z,40.68
2018-08-06T08:17:57.325Z,40.39
2018-08-06T08:18:57.240Z,41.18
2018-08-06T08:19:57.284Z,40.47
2018-08-06T08:20:57.228Z,40.76
2018-08-06T08:21:57.192Z,39.75
2018-08-06T08:22:57.206Z,40.26
2018-08-06T08:23:57.201Z,40.86
2018-08-06T08:24:57.212Z,40.76
2018-08-06T08:25:57.181Z,40.37
2018-08-06T08:26:57.223Z,40.17
2018-08-06T08:27:57.182Z,40.39
2018-08-06T08:28:57.211Z,41.89
2018-08-06T08:29:57.201Z,41.69
2018-08-06T08:30:57.181Z,42.36
2018-08-06T08:31:57.179Z,40.37
2018-08-06T08:32:57.114Z,40.05
2018-08-06T08:33:57.156Z,39.85
2018-08-06T08:34:57.065Z,39.37
2018-08-06T08:35:57.066Z,40.37
2018-08-06T08:36:57.095Z,40.86
2018-08-06T08:37:57.111Z,40.17
2018-08-06T08:38:57.075Z,40.26
2018-08-06T08:39:57.065Z,40.76
2018-08-06T08:40:56.995Z,40.37
2018-08-06T08:41:57.001Z,40.47
2018-08-06T08:42:56.987Z,40.76
2018-08-06T08:43:56.963Z,40.76
2018-08-06T08:44:56.954Z,39.85
2018-08-06T08:45:56.948Z,39.83
2018-08-06T08:46:56.950Z,38.61
2018-08-06T08:47:56.978Z,38.13
2018-08-06T08:48:56.980Z,38.43
2018-08-06T08:49:56.949Z,38.12
2018-08-06T08:50:56.887Z,38.12
2018-08-06T08:51:56.881Z,37.49
2018-08-06T08:52:56.884Z,37.74
2018-08-06T08:53:56.853Z,37.07
2018-08-06T08:54:56.874Z,37.78
2018-08-06T08:55:56.838Z,37.78
2018-08-06T08:56:56.843Z,38.26
2018-08-06T08:57:56.877Z,36.48
2018-08-06T08:58:57.020Z,37.78
2018-08-06T08:59:56.840Z,38.00
2018-08-06T09:00:56.836Z,38.08
2018-08-06T09:01:56.771Z,38.06
2018-08-06T09:02:56.840Z,37.39
2018-08-06T09:03:56.779Z,37.30
2018-08-06T09:04:56.744Z,38.20
2018-08-06T09:05:56.731Z,37.29
2018-08-06T09:06:56.722Z,38.18
2018-08-06T09:07:56.730Z,38.49
2018-08-06T09:08:56.722Z,37.23
2018-08-06T09:09:56.754Z,36.95
2018-08-06T09:10:56.722Z,37.15
2018-08-06T09:11:56.722Z,37.96
2018-08-06T09:12:56.728Z,38.65
2018-08-06T09:13:56.679Z,38.25
2018-08-06T09:14:56.639Z,38.82
2018-08-06T09:15:56.665Z,37.32
2018-08-06T09:16:56.621Z,37.11
2018-08-06T09:17:56.612Z,37.30
2018-08-06T09:18:56.606Z,37.70
2018-08-06T09:19:56.613Z,37.19
2018-08-06T09:20:56.637Z,37.15
2018-08-06T09:21:56.704Z,35.48
2018-08-06T09:22:56.735Z,35.97
2018-08-06T09:23:56.627Z,35.27
